createdAt,value
2019-02-25T00:00:01.399Z,-2.70
2019-02-25T00:02:37.745Z,-2.80
2019-02-25T00:05:08.773Z,-2.80
2019-02-25T00:07:38.861Z,-2.80
2019-02-25T00:10:16.496Z,-2.70
2019-02-25T00:12:47.661Z,-2.70
2019-02-25T00:15:17.748Z,-2.70
2019-02-25T00:17:47.850Z,-2.70
2019-02-25T00:20:17.938Z,-2.60
2019-02-25T00:22:49.045Z,-2.60
2019-02-25T00:25:21.785Z,-2.60
2019-02-25T00:27:54.913Z,-2.60
2019-02-25T00:30:26.937Z,-2.60
2019-02-25T00:32:58.021Z,-2.60
2019-02-25T00:35:28.126Z,-2.70
2019-02-25T00:38:07.361Z,-2.80
2019-02-25T00:40:37.455Z,-2.80
2019-02-25T00:43:07.545Z,-3.00
2019-02-25T00:45:38.569Z,-3.00
2019-02-25T00:48:08.655Z,-3.10
2019-02-25T00:50:39.701Z,-3.10
2019-02-25T00:53:09.914Z,-3.20
2019-02-25T00:55:41.981Z,-3.20
2019-02-25T00:58:12.969Z,-3.20
2019-02-25T01:00:43.173Z,-3.10
2019-02-25T01:03:13.321Z,-3.10
2019-02-25T01:05:45.421Z,-3.00
2019-02-25T01:08:16.449Z,-3.00
2019-02-25T01:10:46.509Z,-2.90
2019-02-25T01:13:16.613Z,-2.80
2019-02-25T01:15:47.636Z,-2.80
2019-02-25T01:18:17.809Z,-2.80
2019-02-25T01:20:47.913Z,-2.80
2019-02-25T01:23:18.017Z,-2.80
2019-02-25T01:25:49.075Z,-2.90
2019-02-25T01:28:21.105Z,-2.80
2019-02-25T01:30:57.914Z,-2.70
2019-02-25T01:33:27.995Z,-2.70
2019-02-25T01:35:58.091Z,-2.70
2019-02-25T01:38:31.205Z,-2.60
2019-02-25T01:41:02.238Z,-2.60
2019-02-25T01:43:34.309Z,-2.70
2019-02-25T01:46:13.280Z,-2.80
2019-02-25T01:48:45.341Z,-2.90
2019-02-25T01:51:15.433Z,-2.90
2019-02-25T01:53:46.465Z,-3.00
2019-02-25T01:56:17.537Z,-2.90
2019-02-25T01:58:47.621Z,-2.90
2019-02-25T02:01:23.499Z,-2.90
2019-02-25T02:03:53.584Z,-2.90
2019-02-25T02:06:23.681Z,-2.90
2019-02-25T02:08:53.767Z,-3.00
2019-02-25T02:11:23.857Z,-3.00
2019-02-25T02:13:53.963Z,-3.10
2019-02-25T02:16:26.102Z,-3.20
2019-02-25T02:18:56.211Z,-3.20
2019-02-25T02:21:26.297Z,-3.00
2019-02-25T02:23:56.398Z,-2.90
2019-02-25T02:26:26.517Z,-2.90
2019-02-25T02:28:56.617Z,-2.90
2019-02-25T02:31:26.706Z,-2.90
2019-02-25T02:34:00.649Z,-3.00
2019-02-25T02:36:33.729Z,-2.90
2019-02-25T02:39:12.265Z,-3.00
2019-02-25T02:42:13.589Z,-2.90
2019-02-25T02:44:48.066Z,-2.80
2019-02-25T02:47:38.973Z,-2.60
2019-02-25T02:50:22.304Z,-2.60
2019-02-25T02:52:52.471Z,-2.60
2019-02-25T02:55:22.557Z,-2.70
2019-02-25T02:57:52.691Z,-2.90
2019-02-25T03:00:22.902Z,-3.10
2019-02-25T03:02:52.985Z,-3.10
2019-02-25T03:05:23.085Z,-3.10
2019-02-25T03:07:53.189Z,-3.00
2019-02-25T03:10:23.298Z,-2.80
2019-02-25T03:12:54.337Z,-2.60
2019-02-25T03:15:24.445Z,-2.50
2019-02-25T03:17:54.542Z,-2.60
2019-02-25T03:20:28.863Z,-2.70
2019-02-25T03:22:58.961Z,-2.70
2019-02-25T03:25:29.057Z,-2.40
2019-02-25T03:27:59.166Z,-2.10
2019-02-25T03:30:32.770Z,-1.70
2019-02-25T03:33:06.930Z,-1.90
2019-02-25T03:35:37.018Z,-2.00
2019-02-25T03:38:08.013Z,-2.10
2019-02-25T03:40:40.085Z,-2.20
2019-02-25T03:43:10.194Z,-2.10
2019-02-25T03:45:48.521Z,-2.10
2019-02-25T03:48:18.657Z,-2.20
2019-02-25T03:50:48.731Z,-2.40
2019-02-25T03:53:18.813Z,-2.50
2019-02-25T03:55:48.970Z,-2.70
2019-02-25T03:58:19.067Z,-2.80
2019-02-25T04:00:50.221Z,-2.90
2019-02-25T04:03:20.398Z,-3.00
2019-02-25T04:05:50.461Z,-3.10
2019-02-25T04:08:20.613Z,-3.20
2019-02-25T04:10:50.721Z,-3.30
2019-02-25T04:13:20.813Z,-3.30
2019-02-25T04:15:51.958Z,-3.30
2019-02-25T04:18:23.061Z,-3.30
2019-02-25T04:20:53.185Z,-3.10
2019-02-25T04:23:23.274Z,-3.00
2019-02-25T04:25:53.373Z,-3.00
2019-02-25T04:28:23.477Z,-3.00
2019-02-25T04:30:53.565Z,-3.10
2019-02-25T04:33:24.697Z,-3.20
2019-02-25T04:35:55.712Z,-3.20
2019-02-25T04:38:26.778Z,-3.30
2019-02-25T04:40:56.881Z,-3.30
2019-02-25T04:43:26.993Z,-3.30
2019-02-25T04:45:57.081Z,-3.40
2019-02-25T04:48:27.185Z,-3.40
2019-02-25T04:51:00.770Z,-3.50
2019-02-25T04:53:30.871Z,-3.50
2019-02-25T04:56:00.985Z,-3.60
2019-02-25T04:58:32.007Z,-3.60
2019-02-25T05:01:07.817Z,-3.80
2019-02-25T05:03:37.905Z,-3.90
2019-02-25T05:06:07.997Z,-4.00
2019-02-25T05:08:38.089Z,-4.10
2019-02-25T05:11:08.182Z,-4.00
2019-02-25T05:13:38.312Z,-4.10
2019-02-25T05:16:08.394Z,-4.10
2019-02-25T05:18:38.489Z,-4.10
2019-02-25T05:21:08.603Z,-4.20
2019-02-25T05:23:40.669Z,-4.20
2019-02-25T05:26:10.767Z,-4.20
2019-02-25T05:28:41.812Z,-4.20
2019-02-25T05:31:17.687Z,-4.20
2019-02-25T05:33:47.805Z,-4.20
2019-02-25T05:36:17.898Z,-4.20
2019-02-25T05:38:58.675Z,-4.20
2019-02-25T05:41:31.797Z,-4.20
2019-02-25T05:44:01.879Z,-4.20
2019-02-25T05:46:31.973Z,-4.20
2019-02-25T05:49:02.057Z,-4.20
2019-02-25T05:51:37.974Z,-4.20
2019-02-25T05:54:11.823Z,-4.30
2019-02-25T05:56:46.486Z,-4.30
2019-02-25T05:59:22.375Z,-4.30
2019-02-25T06:01:56.493Z,-4.30
2019-02-25T06:04:26.585Z,-4.30
2019-02-25T06:06:56.686Z,-4.20
2019-02-25T06:09:26.793Z,-4.10
2019-02-25T06:11:57.927Z,-4.00
2019-02-25T06:14:33.749Z,-3.90
2019-02-25T06:17:05.843Z,-3.70
2019-02-25T06:19:36.917Z,-3.70
2019-02-25T06:22:07.081Z,-3.80
2019-02-25T06:24:37.173Z,-3.90
2019-02-25T06:27:07.257Z,-3.90
2019-02-25T06:29:38.314Z,-3.90
2019-02-25T06:32:09.297Z,-3.80
2019-02-25T06:34:39.404Z,-3.70
2019-02-25T06:37:11.490Z,-3.70
2019-02-25T06:39:44.645Z,-3.60
2019-02-25T06:42:14.769Z,-3.60
2019-02-25T06:44:44.857Z,-3.50
2019-02-25T06:47:20.736Z,-3.50
2019-02-25T06:52:32.755Z,-3.30
2019-02-25T06:55:05.241Z,-2.90
2019-02-25T06:57:35.357Z,-2.80
2019-02-25T07:00:13.005Z,-2.80
2019-02-25T07:02:45.165Z,-2.80
2019-02-25T07:05:34.642Z,-2.70
2019-02-25T07:08:09.741Z,-2.60
2019-02-25T07:10:44.535Z,-2.40
2019-02-25T07:13:26.349Z,-2.10
2019-02-25T07:16:13.955Z,-1.40
2019-02-25T07:19:01.853Z,-0.60
2019-02-25T07:21:49.153Z,0.50
2019-02-25T07:24:35.581Z,1.40
2019-02-25T07:27:10.610Z,2.10
2019-02-25T07:29:47.422Z,2.60
2019-02-25T07:32:35.213Z,3.10
2019-02-25T07:35:15.617Z,3.80
2019-02-25T07:38:05.373Z,4.60
2019-02-25T07:40:49.685Z,5.50
2019-02-25T07:43:39.674Z,6.30
2019-02-25T07:46:20.281Z,6.70
2019-02-25T07:49:02.736Z,7.20
2019-02-25T07:51:36.911Z,7.60
2019-02-25T07:54:14.210Z,7.80
2019-02-25T07:56:54.705Z,8.70
2019-02-25T07:59:31.898Z,9.70
2019-02-25T08:02:09.365Z,10.90
2019-02-25T08:04:50.094Z,11.90
2019-02-25T08:07:37.824Z,12.70
2019-02-25T08:10:14.152Z,13.30
2019-02-25T08:12:46.897Z,13.90
2019-02-25T08:15:21.433Z,14.20
2019-02-25T08:18:06.765Z,14.40
2019-02-25T08:20:50.265Z,15.00
2019-02-25T08:23:22.025Z,15.50
2019-02-25T08:25:59.683Z,15.90
2019-02-25T08:28:34.384Z,16.50
2019-02-25T08:31:09.501Z,17.20
2019-02-25T08:33:55.561Z,17.80
2019-02-25T08:37:21.585Z,18.20
2019-02-25T08:40:27.305Z,17.80
2019-02-25T08:43:16.333Z,17.40
2019-02-25T08:46:03.917Z,17.70
2019-02-25T08:48:41.881Z,17.70
2019-02-25T08:51:18.901Z,17.20
2019-02-25T08:53:49.051Z,17.10
2019-02-25T08:56:20.777Z,16.90
2019-02-25T08:58:59.021Z,16.90
2019-02-25T09:01:30.102Z,17.00
2019-02-25T09:04:01.129Z,17.20
2019-02-25T09:06:31.385Z,16.90
2019-02-25T09:09:01.478Z,17.00
2019-02-25T09:11:37.341Z,17.70
2019-02-25T09:14:12.009Z,18.40
2019-02-25T09:16:44.021Z,19.20
2019-02-25T09:19:14.105Z,19.60
2019-02-25T09:21:45.997Z,19.90
2019-02-25T09:24:20.029Z,19.60
2019-02-25T09:26:51.109Z,19.30
2019-02-25T09:29:24.695Z,19.60
2019-02-25T09:31:54.776Z,19.70
2019-02-25T09:34:25.815Z,19.50
2019-02-25T09:36:55.913Z,19.80
2019-02-25T09:39:29.659Z,20.50
2019-02-25T09:42:06.365Z,20.90
2019-02-25T09:44:43.117Z,20.90
2019-02-25T09:47:13.221Z,21.00
2019-02-25T09:49:43.305Z,20.90
2019-02-25T09:52:19.221Z,21.20
2019-02-25T09:54:50.253Z,21.70
2019-02-25T09:57:20.333Z,22.20
2019-02-25T09:59:52.321Z,23.80
2019-02-25T10:02:22.431Z,24.50
2019-02-25T10:04:53.457Z,25.00
2019-02-25T10:07:23.549Z,25.00
2019-02-25T10:09:53.639Z,25.70
2019-02-25T10:12:32.589Z,25.90
2019-02-25T10:15:02.672Z,26.60
2019-02-25T10:17:38.801Z,27.10
2019-02-25T10:20:14.092Z,28.40
2019-02-25T10:22:45.168Z,29.40
2019-02-25T10:25:15.256Z,28.50
2019-02-25T10:27:59.397Z,28.50
2019-02-25T10:30:31.482Z,28.60
2019-02-25T10:33:02.459Z,28.00
2019-02-25T10:35:32.553Z,27.40
2019-02-25T10:38:03.250Z,27.20
2019-02-25T10:40:33.583Z,27.50
2019-02-25T10:43:04.633Z,28.70
2019-02-25T10:45:37.215Z,28.80
2019-02-25T10:48:11.457Z,28.20
2019-02-25T10:50:41.557Z,27.90
2019-02-25T10:53:13.642Z,27.40
2019-02-25T10:55:59.141Z,27.50
2019-02-25T10:58:31.147Z,28.20
2019-02-25T11:01:04.393Z,29.10
2019-02-25T11:03:35.353Z,30.00
2019-02-25T11:06:05.524Z,29.80
2019-02-25T11:08:39.330Z,29.20
2019-02-25T11:11:18.853Z,29.60
2019-02-25T11:13:54.161Z,30.10
2019-02-25T11:16:25.159Z,31.50
2019-02-25T11:19:00.920Z,32.10
2019-02-25T11:21:32.787Z,32.00
2019-02-25T11:24:03.061Z,32.50
2019-02-25T11:26:36.358Z,32.40
2019-02-25T11:29:08.193Z,33.10
2019-02-25T11:31:42.817Z,34.30
2019-02-25T11:34:12.902Z,34.30
2019-02-25T11:36:43.919Z,34.20
2019-02-25T11:39:16.295Z,34.30
2019-02-25T11:41:46.474Z,34.00
2019-02-25T11:44:18.953Z,33.40
2019-02-25T11:46:51.243Z,33.50
2019-02-25T11:49:23.293Z,33.70
2019-02-25T11:51:55.922Z,34.30
2019-02-25T11:54:28.066Z,34.50
2019-02-25T11:56:58.237Z,35.00
2019-02-25T11:59:48.179Z,35.10
2019-02-25T12:02:25.424Z,35.40
2019-02-25T12:04:56.782Z,33.90
2019-02-25T12:07:33.861Z,33.70
2019-02-25T12:10:05.294Z,33.50
2019-02-25T12:12:36.359Z,33.10
2019-02-25T12:15:16.675Z,33.10
2019-02-25T12:17:46.935Z,32.40
2019-02-25T12:20:17.909Z,32.10
2019-02-25T12:22:48.901Z,33.70
2019-02-25T12:25:23.698Z,35.40
2019-02-25T12:27:53.908Z,34.80
2019-02-25T12:30:28.584Z,34.70
2019-02-25T12:32:59.625Z,34.90
2019-02-25T12:35:29.701Z,35.40
2019-02-25T12:37:59.789Z,36.40
2019-02-25T12:40:29.879Z,37.20
2019-02-25T12:43:00.932Z,38.40
2019-02-25T12:45:34.157Z,37.20
2019-02-25T12:48:14.161Z,37.10
2019-02-25T12:50:45.229Z,37.50
2019-02-25T12:53:15.319Z,36.60
2019-02-25T12:55:45.408Z,36.40
2019-02-25T12:58:15.493Z,35.20
2019-02-25T13:00:45.616Z,35.00
2019-02-25T13:03:24.536Z,33.40
2019-02-25T13:05:54.620Z,32.50
2019-02-25T13:08:26.681Z,32.70
2019-02-25T13:10:56.772Z,33.60
2019-02-25T13:13:28.765Z,33.70
2019-02-25T13:15:59.749Z,34.00
2019-02-25T13:18:30.737Z,34.80
2019-02-25T13:21:00.818Z,34.80
2019-02-25T13:23:34.061Z,34.10
2019-02-25T13:26:07.341Z,31.70
2019-02-25T13:28:36.891Z,29.10
2019-02-25T13:31:08.485Z,28.40
2019-02-25T13:33:41.511Z,28.60
2019-02-25T13:36:12.703Z,28.70
2019-02-25T13:38:43.954Z,28.90
2019-02-25T13:41:14.049Z,29.30
2019-02-25T13:43:46.069Z,30.40
2019-02-25T13:46:16.145Z,31.80
2019-02-25T13:48:53.058Z,32.50
2019-02-25T13:51:24.070Z,32.20
2019-02-25T13:54:01.011Z,31.80
2019-02-25T13:56:31.096Z,31.80
2019-02-25T13:59:01.190Z,32.50
2019-02-25T14:01:32.430Z,33.10
2019-02-25T14:04:04.074Z,34.10
2019-02-25T14:06:34.138Z,33.90
2019-02-25T14:09:07.952Z,33.70
2019-02-25T14:11:38.074Z,34.10
2019-02-25T14:14:10.124Z,34.10
2019-02-25T14:16:41.175Z,33.30
2019-02-25T14:19:12.170Z,32.50
2019-02-25T14:21:42.247Z,32.80
2019-02-25T14:24:12.338Z,32.60
2019-02-25T14:26:45.414Z,32.40
2019-02-25T14:29:17.385Z,30.40
2019-02-25T14:31:53.316Z,28.90
2019-02-25T14:34:23.397Z,29.30
2019-02-25T14:36:54.928Z,29.80
2019-02-25T14:39:28.446Z,28.90
2019-02-25T14:42:03.922Z,27.40
2019-02-25T14:44:35.806Z,27.00
2019-02-25T14:47:19.814Z,26.70
2019-02-25T14:49:45.380Z,26.00
2019-02-25T14:52:15.534Z,26.10
2019-02-25T14:54:45.965Z,27.10
2019-02-25T14:57:20.295Z,27.30
2019-02-25T14:59:49.776Z,27.80
2019-02-25T15:02:20.958Z,28.40
2019-02-25T15:04:51.946Z,29.30
2019-02-25T15:07:22.034Z,29.50
2019-02-25T15:09:53.145Z,29.30
2019-02-25T15:12:23.614Z,28.50
2019-02-25T15:14:55.957Z,28.10
2019-02-25T15:17:26.186Z,27.40
2019-02-25T15:19:58.262Z,25.70
2019-02-25T15:22:32.043Z,25.10
2019-02-25T15:25:02.438Z,24.20
2019-02-25T15:27:33.434Z,22.90
2019-02-25T15:30:05.230Z,21.50
2019-02-25T15:32:37.111Z,20.80
2019-02-25T15:35:17.755Z,20.30
2019-02-25T15:37:50.608Z,19.60
2019-02-25T15:40:22.792Z,19.00
2019-02-25T15:43:10.431Z,18.30
2019-02-25T15:45:42.842Z,17.70
2019-02-25T15:48:18.743Z,17.10
2019-02-25T15:50:55.494Z,16.70
2019-02-25T15:53:27.190Z,16.10
2019-02-25T15:56:01.026Z,15.30
2019-02-25T15:58:30.058Z,14.90
2019-02-25T16:01:01.090Z,14.50
2019-02-25T16:03:35.044Z,14.20
2019-02-25T16:06:08.955Z,13.90
2019-02-25T16:08:49.934Z,13.60
2019-02-25T16:11:25.565Z,13.40
2019-02-25T16:13:55.795Z,13.20
2019-02-25T16:16:26.538Z,13.00
2019-02-25T16:19:05.629Z,12.90
2019-02-25T16:21:35.502Z,12.80
2019-02-25T16:24:08.250Z,12.80
2019-02-25T16:26:38.201Z,12.60
2019-02-25T16:29:11.156Z,12.30
2019-02-25T16:31:58.175Z,12.00
2019-02-25T16:34:38.254Z,11.70
2019-02-25T16:37:08.854Z,11.50
2019-02-25T16:39:43.522Z,11.30
2019-02-25T16:42:16.559Z,11.00
2019-02-25T16:44:46.706Z,10.90
2019-02-25T16:47:31.878Z,10.70
2019-02-25T16:49:52.652Z,10.30
2019-02-25T16:52:24.470Z,10.00
2019-02-25T16:54:55.939Z,9.70
2019-02-25T16:57:30.004Z,9.40
2019-02-25T17:00:02.251Z,9.10
2019-02-25T17:02:33.762Z,9.00
2019-02-25T17:05:14.920Z,8.80
2019-02-25T17:07:46.503Z,8.80
2019-02-25T17:10:29.188Z,8.90
2019-02-25T17:13:00.339Z,8.90
2019-02-25T17:15:38.059Z,8.80
2019-02-25T17:18:15.129Z,8.70
2019-02-25T17:20:45.063Z,8.50
2019-02-25T17:23:17.494Z,8.30
2019-02-25T17:25:48.554Z,8.20
2019-02-25T17:28:20.247Z,8.10
2019-02-25T17:30:52.727Z,8.00
2019-02-25T17:33:24.034Z,7.80
2019-02-25T17:35:56.214Z,7.70
2019-02-25T17:38:28.540Z,7.60
2019-02-25T17:41:03.310Z,7.50
2019-02-25T17:43:34.244Z,7.40
2019-02-25T17:46:07.049Z,7.20
2019-02-25T17:48:40.250Z,6.90
2019-02-25T17:51:11.726Z,6.70
2019-02-25T17:53:46.085Z,6.60
2019-02-25T17:56:18.027Z,6.50
2019-02-25T17:58:48.593Z,6.40
2019-02-25T18:01:21.280Z,6.30
2019-02-25T18:03:55.715Z,6.30
2019-02-25T18:06:30.174Z,6.40
2019-02-25T18:08:59.757Z,6.50
2019-02-25T18:11:39.079Z,6.70
2019-02-25T18:14:19.868Z,6.70
2019-02-25T18:17:03.374Z,6.50
2019-02-25T18:19:34.225Z,6.30
2019-02-25T18:22:11.672Z,6.00
2019-02-25T18:24:44.010Z,5.80
2019-02-25T18:27:34.844Z,5.70
2019-02-25T18:30:21.661Z,5.40
2019-02-25T18:32:55.199Z,5.20
2019-02-25T18:35:41.061Z,5.20
2019-02-25T18:38:10.589Z,5.20
2019-02-25T18:40:43.493Z,5.10
2019-02-25T18:43:13.713Z,4.90
2019-02-25T18:45:45.933Z,4.80
2019-02-25T18:48:16.935Z,4.60
2019-02-25T18:51:01.761Z,4.50
2019-02-25T18:53:33.922Z,4.30
2019-02-25T18:56:06.280Z,4.20
2019-02-25T18:58:37.556Z,4.10
2019-02-25T19:01:09.678Z,3.90
2019-02-25T19:03:40.081Z,3.80
2019-02-25T19:06:14.581Z,3.70
2019-02-25T19:08:45.339Z,3.60
2019-02-25T19:11:18.975Z,3.50
2019-02-25T19:13:56.618Z,3.40
2019-02-25T19:16:27.773Z,3.30
2019-02-25T19:19:08.050Z,3.30
2019-02-25T19:21:38.643Z,3.20
2019-02-25T19:24:12.096Z,3.10
2019-02-25T19:26:49.549Z,3.10
2019-02-25T19:29:21.797Z,3.10
2019-02-25T19:31:53.541Z,3.10
2019-02-25T19:34:23.625Z,3.10
2019-02-25T19:36:57.998Z,3.00
2019-02-25T19:39:25.638Z,2.90
2019-02-25T19:42:02.925Z,2.80
2019-02-25T19:44:38.110Z,2.80
2019-02-25T19:47:09.786Z,2.70
2019-02-25T19:49:41.409Z,2.70
2019-02-25T19:52:12.617Z,2.60
2019-02-25T19:54:45.827Z,2.50
2019-02-25T19:57:18.666Z,2.50
2019-02-25T19:59:50.563Z,2.40
2019-02-25T20:02:22.639Z,2.30
2019-02-25T20:04:59.612Z,2.30
2019-02-25T20:07:31.446Z,2.30
2019-02-25T20:10:11.619Z,2.50
2019-02-25T20:12:44.503Z,2.50
2019-02-25T20:15:24.891Z,2.50
2019-02-25T20:17:56.899Z,2.50
2019-02-25T20:20:28.720Z,2.30
2019-02-25T20:23:01.495Z,2.30
2019-02-25T20:25:31.698Z,2.20
2019-02-25T20:28:02.503Z,2.10
2019-02-25T20:30:33.654Z,2.00
2019-02-25T20:33:06.481Z,1.90
2019-02-25T20:35:36.477Z,1.80
2019-02-25T20:38:06.568Z,1.70
2019-02-25T20:40:36.645Z,1.90
2019-02-25T20:43:06.745Z,2.00
2019-02-25T20:45:37.202Z,2.10
2019-02-25T20:48:07.309Z,2.00
2019-02-25T20:50:37.405Z,2.00
2019-02-25T20:53:10.971Z,2.00
2019-02-25T20:55:40.409Z,1.80
2019-02-25T20:58:13.487Z,1.70
2019-02-25T21:00:44.187Z,1.70
2019-02-25T21:03:16.641Z,1.80
2019-02-25T21:05:47.329Z,1.80
2019-02-25T21:08:19.072Z,1.90
2019-02-25T21:10:49.647Z,2.00
2019-02-25T21:13:22.073Z,2.00
2019-02-25T21:15:52.557Z,2.00
2019-02-25T21:18:24.665Z,1.80
2019-02-25T21:20:58.181Z,1.60
2019-02-25T21:23:28.341Z,1.40
2019-02-25T21:25:59.912Z,1.40
2019-02-25T21:28:42.736Z,1.30
2019-02-25T21:31:16.155Z,1.20
2019-02-25T21:33:47.411Z,1.20
2019-02-25T21:36:16.509Z,1.10
2019-02-25T21:38:56.993Z,1.10
2019-02-25T21:41:27.073Z,1.10
2019-02-25T21:44:03.334Z,1.20
2019-02-25T21:46:35.405Z,1.30
2019-02-25T21:49:06.603Z,1.30
2019-02-25T21:51:39.194Z,1.20
2019-02-25T21:54:10.101Z,1.10
2019-02-25T21:56:40.201Z,1.00
2019-02-25T21:59:15.058Z,0.90
2019-02-25T22:01:44.733Z,1.00
2019-02-25T22:04:15.583Z,1.00
2019-02-25T22:06:49.054Z,0.90
2019-02-25T22:09:35.437Z,0.80
2019-02-25T22:11:52.237Z,0.60
2019-02-25T22:14:23.831Z,0.60
2019-02-25T22:16:54.832Z,0.70
2019-02-25T22:19:25.937Z,0.70
2019-02-25T22:21:57.963Z,0.60
2019-02-25T22:24:38.199Z,0.50
2019-02-25T22:27:08.058Z,0.50
2019-02-25T22:29:40.855Z,0.50
2019-02-25T22:32:11.021Z,0.40
2019-02-25T22:34:46.721Z,0.50
2019-02-25T22:37:19.295Z,0.50
2019-02-25T22:39:50.356Z,0.50
2019-02-25T22:42:28.987Z,0.50
2019-02-25T22:44:59.077Z,0.50
2019-02-25T22:47:29.187Z,0.50
2019-02-25T22:49:59.285Z,0.50
2019-02-25T22:52:33.176Z,0.50
2019-02-25T22:55:09.853Z,0.50
2019-02-25T22:57:43.479Z,0.40
2019-02-25T23:00:22.001Z,0.40
2019-02-25T23:03:03.251Z,0.50
2019-02-25T23:05:33.534Z,0.40
2019-02-25T23:08:03.597Z,0.30
2019-02-25T23:10:38.042Z,0.40
2019-02-25T23:13:09.581Z,0.30
2019-02-25T23:15:39.669Z,0.10
2019-02-25T23:18:13.855Z,0.00
2019-02-25T23:20:50.338Z,-0.10
2019-02-25T23:23:25.437Z,-0.10
2019-02-25T23:26:02.341Z,-0.10
2019-02-25T23:28:32.446Z,-0.10
2019-02-25T23:31:02.533Z,0.00
2019-02-25T23:33:32.637Z,0.10
2019-02-25T23:36:02.727Z,0.10
2019-02-25T23:38:41.902Z,-0.10
2019-02-25T23:41:14.524Z,-0.20
2019-02-25T23:43:48.724Z,-0.20
2019-02-25T23:46:23.035Z,-0.20
2019-02-25T23:48:50.195Z,-0.30
2019-02-25T23:51:23.364Z,-0.30
2019-02-25T23:53:55.902Z,-0.30
2019-02-25T23:56:27.440Z,-0.20
2019-02-25T23:58:58.025Z,-0.20
